createdAt,value
2017-06-21T00:00:20.931Z,1002.09
2017-06-21T00:01:01.632Z,1002.09
2017-06-21T00:01:42.090Z,1002.12
2017-06-21T00:02:22.955Z,1002.08
2017-06-21T00:03:03.652Z,1002.11
2017-06-21T00:03:44.067Z,1002.09
2017-06-21T00:04:24.917Z,1002.11
2017-06-21T00:05:05.590Z,1002.15
2017-06-21T00:05:46.365Z,1002.18
2017-06-21T00:06:27.257Z,1002.19
2017-06-21T00:07:07.702Z,1002.23
2017-06-21T00:07:48.770Z,1002.22
2017-06-21T00:08:29.656Z,1002.2
2017-06-21T00:09:10.386Z,1002.25
2017-06-21T00:09:51.026Z,1002.26
2017-06-21T00:10:32.090Z,1002.22
2017-06-21T00:11:12.512Z,1002.24
2017-06-21T00:11:53.309Z,1002.26
2017-06-21T00:12:33.807Z,1002.27
2017-06-21T00:13:14.269Z,1002.26
2017-06-21T00:13:54.754Z,1002.23
2017-06-21T00:14:35.294Z,1002.23
2017-06-21T00:15:15.766Z,1002.24
2017-06-21T00:15:56.302Z,1002.24
2017-06-21T00:16:36.840Z,1002.18
2017-06-21T00:17:17.276Z,1002.21
2017-06-21T00:17:57.813Z,1002.25
2017-06-21T00:18:38.498Z,1002.26
2017-06-21T00:19:19.064Z,1002.26
2017-06-21T00:19:59.472Z,1002.25
2017-06-21T00:20:40.346Z,1002.28
2017-06-21T00:21:20.885Z,1002.26
2017-06-21T00:22:01.436Z,1002.25
2017-06-21T00:22:42.194Z,1002.26
2017-06-21T00:23:23.194Z,1002.25
2017-06-21T00:24:03.901Z,1002.22
2017-06-21T00:24:44.456Z,1002.18
2017-06-21T00:25:24.954Z,1002.2
2017-06-21T00:26:05.436Z,1002.16
2017-06-21T00:26:45.996Z,1002.16
2017-06-21T00:27:26.771Z,1002.18
2017-06-21T00:28:07.245Z,1002.19
2017-06-21T00:28:47.726Z,1002.18
2017-06-21T00:29:28.361Z,1002.21
2017-06-21T00:30:08.902Z,1002.2
2017-06-21T00:30:49.692Z,1002.23
2017-06-21T00:31:30.245Z,1002.24
2017-06-21T00:32:10.750Z,1002.21
2017-06-21T00:32:51.211Z,1002.23
2017-06-21T00:33:31.796Z,1002.22
2017-06-21T00:34:12.317Z,1002.19
2017-06-21T00:34:52.839Z,1002.26
2017-06-21T00:35:33.299Z,1002.2
2017-06-21T00:36:13.739Z,1002.2
2017-06-21T00:36:54.271Z,1002.19
2017-06-21T00:37:34.752Z,1002.2
2017-06-21T00:38:15.459Z,1002.19
2017-06-21T00:38:55.889Z,1002.18
2017-06-21T00:39:36.428Z,1002.19
2017-06-21T00:40:16.843Z,1002.15
2017-06-21T00:40:57.424Z,1002.22
2017-06-21T00:41:37.978Z,1002.16
2017-06-21T00:42:18.419Z,1002.17
2017-06-21T00:42:58.916Z,1002.17
2017-06-21T00:43:39.649Z,1002.2
2017-06-21T00:44:20.092Z,1002.17
2017-06-21T00:45:00.609Z,1002.19
2017-06-21T00:45:41.184Z,1002.18
2017-06-21T00:46:21.667Z,1002.14
2017-06-21T00:47:02.080Z,1002.16
2017-06-21T00:47:42.619Z,1002.15
2017-06-21T00:48:23.152Z,1002.18
2017-06-21T00:49:03.560Z,1002.18
2017-06-21T00:49:44.148Z,1002.16
2017-06-21T00:50:24.612Z,1002.16
2017-06-21T00:51:05.085Z,1002.15
2017-06-21T00:51:45.569Z,1002.14
2017-06-21T00:52:26.074Z,1002.18
2017-06-21T00:53:06.568Z,1002.14
2017-06-21T00:53:47.061Z,1002.18
2017-06-21T00:54:27.607Z,1002.12
2017-06-21T00:55:08.268Z,1002.12
2017-06-21T00:55:48.728Z,1002.07
2017-06-21T00:56:29.271Z,1002.11
2017-06-21T00:57:09.723Z,1002.06
2017-06-21T00:57:50.247Z,1002.06
2017-06-21T00:58:30.666Z,1002.09
2017-06-21T00:59:11.362Z,1002.08
2017-06-21T00:59:52.338Z,1002.09
2017-06-21T01:00:32.934Z,1002.1
2017-06-21T01:01:13.634Z,1002.1
2017-06-21T01:01:54.168Z,1002.11
2017-06-21T01:02:35.151Z,1002.08
2017-06-21T01:03:16.808Z,1002.16
2017-06-21T01:03:58.039Z,1002.12
2017-06-21T01:04:38.970Z,1002.08
2017-06-21T01:05:19.601Z,1002.08
2017-06-21T01:06:00.521Z,1002.06
2017-06-21T01:06:41.360Z,1002.06
2017-06-21T01:07:22.456Z,1002.07
2017-06-21T01:08:03.268Z,1002.06
2017-06-21T01:08:44.205Z,1002.06
2017-06-21T01:09:25.302Z,1002.07
2017-06-21T01:10:06.210Z,1002.08
2017-06-21T01:10:46.788Z,1002.09
2017-06-21T01:11:27.446Z,1002.08
2017-06-21T01:12:08.304Z,1002.11
2017-06-21T01:12:49.334Z,1002.13
2017-06-21T01:13:29.869Z,1002.15
2017-06-21T01:14:10.457Z,1002.09
2017-06-21T01:14:51.046Z,1002.08
2017-06-21T01:15:31.668Z,1002.12
2017-06-21T01:16:12.715Z,1002.1
2017-06-21T01:16:53.358Z,1002.09
2017-06-21T01:17:33.944Z,1002.14
2017-06-21T01:18:15.176Z,1002.07
2017-06-21T01:18:56.379Z,1002.11
2017-06-21T01:19:37.049Z,1002.13
2017-06-21T01:20:17.742Z,1002.15
2017-06-21T01:20:58.256Z,1002.19
2017-06-21T01:21:38.851Z,1002.17
2017-06-21T01:22:19.469Z,1002.19
2017-06-21T01:22:59.809Z,1002.2
2017-06-21T01:23:40.498Z,1002.18
2017-06-21T01:24:21.004Z,1002.15
2017-06-21T01:25:01.533Z,1002.17
2017-06-21T01:25:41.934Z,1002.17
2017-06-21T01:26:22.454Z,1002.15
2017-06-21T01:27:02.941Z,1002.19
2017-06-21T01:27:43.683Z,1002.14
2017-06-21T01:28:24.159Z,1002.15
2017-06-21T01:29:04.698Z,1002.12
2017-06-21T01:29:45.182Z,1002.14
2017-06-21T01:30:25.701Z,1002.12
2017-06-21T01:31:06.184Z,1002.1
2017-06-21T01:31:46.690Z,1002.11
2017-06-21T01:32:27.209Z,1002.1
2017-06-21T01:33:07.718Z,1002.13
2017-06-21T01:33:48.250Z,1002.08
2017-06-21T01:34:28.730Z,1002.12
2017-06-21T01:35:09.261Z,1002.11
2017-06-21T01:35:49.792Z,1002.11
2017-06-21T01:36:30.272Z,1002.08
2017-06-21T01:38:55.877Z,1002.13
2017-06-21T01:39:43.696Z,1002.09
2017-06-21T01:40:33.117Z,1002.06
2017-06-21T01:41:21.872Z,1002.09
2017-06-21T01:42:10.309Z,1002.07
2017-06-21T01:42:58.846Z,1002.06
2017-06-21T01:43:47.544Z,1002
2017-06-21T01:44:36.344Z,1002.02
2017-06-21T01:45:26.254Z,1002
2017-06-21T01:46:14.830Z,1002.04
2017-06-21T01:47:03.528Z,1002.04
2017-06-21T01:51:12.391Z,1002.12
2017-06-21T01:52:01.904Z,1002.08
2017-06-21T01:52:50.100Z,1002.06
2017-06-21T01:53:39.246Z,1002.03
2017-06-21T01:54:27.522Z,1002.07
2017-06-21T01:55:17.365Z,1002.12
2017-06-21T01:56:05.575Z,1002.09
2017-06-21T01:56:54.850Z,1002.08
2017-06-21T01:57:43.528Z,1002.06
2017-06-21T01:58:32.078Z,1002.07
2017-06-21T01:59:21.114Z,1002.09
2017-06-21T02:00:09.708Z,1002.1
2017-06-21T02:00:58.272Z,1002.08
2017-06-21T02:01:47.009Z,1002.04
2017-06-21T02:02:35.922Z,1002.05
2017-06-21T02:03:24.418Z,1002.06
2017-06-21T02:04:13.373Z,1002.01
2017-06-21T02:05:01.516Z,1002.01
2017-06-21T02:05:50.803Z,1002.02
2017-06-21T02:06:38.948Z,1002.01
2017-06-21T02:07:27.779Z,1002.01
2017-06-21T02:08:17.217Z,1001.94
2017-06-21T02:09:06.089Z,1002
2017-06-21T02:09:54.739Z,1001.99
2017-06-21T02:10:43.839Z,1001.99
2017-06-21T02:11:32.126Z,1001.98
2017-06-21T02:12:21.518Z,1001.94
2017-06-21T02:13:09.732Z,1001.95
2017-06-21T02:13:58.897Z,1001.95
2017-06-21T02:14:47.639Z,1002
2017-06-21T02:15:36.343Z,1002
2017-06-21T02:16:24.941Z,1001.98
2017-06-21T02:17:13.927Z,1001.97
2017-06-21T02:18:02.073Z,1001.97
2017-06-21T02:18:50.935Z,1001.94
2017-06-21T02:19:39.393Z,1001.98
2017-06-21T02:20:28.138Z,1001.98
2017-06-21T02:21:16.730Z,1001.99
2017-06-21T02:22:05.490Z,1001.97
2017-06-21T02:22:54.166Z,1001.97
2017-06-21T02:23:43.335Z,1001.98
2017-06-21T02:24:32.060Z,1002.01
2017-06-21T02:25:20.937Z,1001.92
2017-06-21T02:26:09.812Z,1002.01
2017-06-21T02:26:57.375Z,1001.98
2017-06-21T02:27:46.123Z,1001.97
2017-06-21T02:28:34.661Z,1001.94
2017-06-21T02:29:23.860Z,1001.97
2017-06-21T02:30:12.395Z,1001.96
2017-06-21T02:31:01.392Z,1002.01
2017-06-21T02:31:50.001Z,1001.99
2017-06-21T02:32:38.851Z,1002.01
2017-06-21T02:33:27.448Z,1002
2017-06-21T02:34:16.331Z,1002.02
2017-06-21T02:35:05.116Z,1002.03
2017-06-21T02:35:53.404Z,1001.97
2017-06-21T02:36:42.358Z,1001.98
2017-06-21T02:37:30.868Z,1001.99
2017-06-21T02:38:17.052Z,1002
2017-06-21T02:38:57.627Z,1002
2017-06-21T02:39:38.286Z,1001.96
2017-06-21T02:40:18.730Z,1002
2017-06-21T02:40:59.290Z,1002
2017-06-21T02:41:40.042Z,1002.01
2017-06-21T02:42:20.507Z,1002.01
2017-06-21T02:43:01.071Z,1002.05
2017-06-21T02:43:41.700Z,1002
2017-06-21T02:44:22.218Z,1002.03
2017-06-21T02:45:02.712Z,1002.08
2017-06-21T02:45:43.246Z,1002.01
2017-06-21T02:46:23.758Z,1002
2017-06-21T02:47:04.175Z,1001.98
2017-06-21T02:47:44.677Z,1001.98
2017-06-21T02:48:25.155Z,1001.94
2017-06-21T02:49:05.728Z,1001.97
2017-06-21T02:49:46.427Z,1002.02
2017-06-21T02:50:26.932Z,1001.98
2017-06-21T02:51:07.949Z,1001.97
2017-06-21T02:51:48.499Z,1001.99
2017-06-21T02:52:29.071Z,1001.96
2017-06-21T02:53:09.578Z,1001.91
2017-06-21T02:53:50.187Z,1001.94
2017-06-21T02:54:30.822Z,1001.9
2017-06-21T02:55:11.252Z,1001.94
2017-06-21T02:55:51.795Z,1001.93
2017-06-21T02:56:32.252Z,1001.92
2017-06-21T02:57:12.754Z,1001.98
2017-06-21T02:57:53.332Z,1001.93
2017-06-21T02:58:33.767Z,1002.01
2017-06-21T02:59:14.242Z,1001.99
2017-06-21T02:59:54.716Z,1002.03
2017-06-21T03:00:35.254Z,1002.04
2017-06-21T03:01:15.742Z,1002.01
2017-06-21T03:01:56.263Z,1002.03
2017-06-21T03:02:36.711Z,1002.04
2017-06-21T03:03:17.326Z,1002.06
2017-06-21T03:03:57.768Z,1002.08
2017-06-21T03:04:38.254Z,1002.06
2017-06-21T03:05:18.762Z,1002.06
2017-06-21T03:05:59.264Z,1002.04
2017-06-21T03:06:39.781Z,1002.03
2017-06-21T03:07:20.297Z,1002.1
2017-06-21T03:08:00.764Z,1002.02
2017-06-21T03:08:41.327Z,1002.09
2017-06-21T03:09:21.759Z,1002.04
2017-06-21T03:10:02.386Z,1002.01
2017-06-21T03:10:42.856Z,1002.05
2017-06-21T03:11:23.306Z,1002.08
2017-06-21T03:12:03.814Z,1002.08
2017-06-21T03:12:44.377Z,1002.07
2017-06-21T03:13:24.842Z,1002.08
2017-06-21T03:14:05.302Z,1002.11
2017-06-21T03:14:45.811Z,1002.11
2017-06-21T03:15:26.262Z,1002.1
2017-06-21T03:16:06.766Z,1002.11
2017-06-21T03:16:47.248Z,1002.08
2017-06-21T03:17:27.756Z,1002.08
2017-06-21T03:18:08.247Z,1002.13
2017-06-21T03:18:48.764Z,1002.1
2017-06-21T03:19:29.246Z,1002.12
2017-06-21T03:20:09.793Z,1002.17
2017-06-21T03:20:50.368Z,1002.19
2017-06-21T03:21:30.878Z,1002.19
2017-06-21T03:22:11.348Z,1002.17
2017-06-21T03:22:51.852Z,1002.22
2017-06-21T03:23:32.412Z,1002.19
2017-06-21T03:24:12.885Z,1002.2
2017-06-21T03:24:53.361Z,1002.24
2017-06-21T03:25:33.873Z,1002.21
2017-06-21T03:26:14.478Z,1002.22
2017-06-21T03:26:54.959Z,1002.22
2017-06-21T03:27:35.433Z,1002.31
2017-06-21T03:28:15.986Z,1002.34
2017-06-21T03:28:56.482Z,1002.32
2017-06-21T03:29:36.937Z,1002.32
2017-06-21T03:30:17.432Z,1002.34
2017-06-21T03:30:57.980Z,1002.32
2017-06-21T03:31:38.532Z,1002.35
2017-06-21T03:32:19.059Z,1002.31
2017-06-21T03:33:00.224Z,1002.32
2017-06-21T03:33:40.846Z,1002.34
2017-06-21T03:34:21.322Z,1002.33
2017-06-21T03:35:01.815Z,1002.3
2017-06-21T03:35:42.277Z,1002.35
2017-06-21T03:36:22.772Z,1002.38
2017-06-21T03:37:03.297Z,1002.32
2017-06-21T03:37:43.785Z,1002.31
2017-06-21T03:38:24.246Z,1002.31
2017-06-21T03:39:05.129Z,1002.25
2017-06-21T03:39:45.672Z,1002.35
2017-06-21T03:40:26.210Z,1002.29
2017-06-21T03:41:06.659Z,1002.3
2017-06-21T03:41:47.195Z,1002.3
2017-06-21T03:42:27.754Z,1002.26
2017-06-21T03:43:08.285Z,1002.24
2017-06-21T03:43:48.764Z,1002.28
2017-06-21T03:44:29.230Z,1002.31
2017-06-21T03:45:09.778Z,1002.33
2017-06-21T03:45:50.241Z,1002.29
2017-06-21T03:46:30.821Z,1002.32
2017-06-21T03:47:11.334Z,1002.32
2017-06-21T03:47:51.771Z,1002.35
2017-06-21T03:48:32.289Z,1002.33
2017-06-21T03:49:12.770Z,1002.33
2017-06-21T03:49:53.234Z,1002.31
2017-06-21T03:50:33.886Z,1002.39
2017-06-21T03:51:14.398Z,1002.38
2017-06-21T03:51:54.948Z,1002.36
2017-06-21T03:52:35.384Z,1002.39
2017-06-21T03:53:15.885Z,1002.39
2017-06-21T03:53:56.447Z,1002.42
2017-06-21T03:54:36.931Z,1002.4
2017-06-21T03:55:17.352Z,1002.41
2017-06-21T03:55:57.848Z,1002.45
2017-06-21T03:56:38.352Z,1002.43
2017-06-21T03:57:18.887Z,1002.49
2017-06-21T03:57:59.409Z,1002.45
2017-06-21T03:58:39.921Z,1002.47
2017-06-21T03:59:20.444Z,1002.51
2017-06-21T04:00:01.001Z,1002.43
2017-06-21T04:00:41.435Z,1002.46
2017-06-21T04:01:21.927Z,1002.45
2017-06-21T04:02:02.539Z,1002.48
2017-06-21T04:02:42.919Z,1002.44
2017-06-21T04:03:23.445Z,1002.45
2017-06-21T04:04:03.978Z,1002.44
2017-06-21T04:04:44.433Z,1002.44
2017-06-21T04:05:24.953Z,1002.45
2017-06-21T04:06:05.449Z,1002.5
2017-06-21T04:06:45.960Z,1002.44
2017-06-21T04:07:26.539Z,1002.48
2017-06-21T04:08:07.076Z,1002.51
2017-06-21T04:08:47.650Z,1002.51
2017-06-21T04:09:28.173Z,1002.54
2017-06-21T04:10:08.674Z,1002.53
2017-06-21T04:10:49.197Z,1002.51
2017-06-21T04:11:29.749Z,1002.54
2017-06-21T04:12:10.232Z,1002.58
2017-06-21T04:12:50.761Z,1002.54
2017-06-21T04:13:31.273Z,1002.55
2017-06-21T04:14:11.822Z,1002.53
2017-06-21T04:14:52.410Z,1002.59
2017-06-21T04:15:32.929Z,1002.54
2017-06-21T04:16:13.402Z,1002.58
2017-06-21T04:16:53.891Z,1002.56
2017-06-21T04:17:34.378Z,1002.52
2017-06-21T04:18:15.034Z,1002.53
2017-06-21T04:18:55.434Z,1002.53
2017-06-21T04:19:35.946Z,1002.51
2017-06-21T04:20:16.491Z,1002.52
2017-06-21T04:20:57.099Z,1002.5
2017-06-21T04:21:37.728Z,1002.49
2017-06-21T04:22:18.332Z,1002.54
2017-06-21T04:22:58.848Z,1002.52
2017-06-21T04:23:40.163Z,1002.58
2017-06-21T04:24:20.709Z,1002.52
2017-06-21T04:25:01.282Z,1002.55
2017-06-21T04:25:41.712Z,1002.6
2017-06-21T04:26:22.266Z,1002.59
2017-06-21T04:27:02.706Z,1002.62
2017-06-21T04:27:43.211Z,1002.61
2017-06-21T04:28:23.709Z,1002.6
2017-06-21T04:29:04.363Z,1002.62
2017-06-21T04:29:45.007Z,1002.63
2017-06-21T04:30:25.845Z,1002.62
2017-06-21T04:31:06.300Z,1002.68
2017-06-21T04:31:46.923Z,1002.64
2017-06-21T04:32:27.653Z,1002.67
2017-06-21T04:35:06.502Z,1002.65
2017-06-21T04:35:55.302Z,1002.7
2017-06-21T04:36:44.003Z,1002.72
2017-06-21T04:37:32.655Z,1002.71
2017-06-21T04:38:24.836Z,1002.72
2017-06-21T04:39:11.352Z,1002.67
2017-06-21T04:39:59.699Z,1002.7
2017-06-21T04:40:48.822Z,1002.75
2017-06-21T04:41:37.097Z,1002.77
2017-06-21T04:42:27.888Z,1002.78
2017-06-21T04:43:23.844Z,1002.87
2017-06-21T04:47:17.933Z,1002.75
2017-06-21T04:47:58.558Z,1002.79
2017-06-21T04:48:39.050Z,1002.75
2017-06-21T04:49:19.620Z,1002.8
2017-06-21T04:50:00.111Z,1002.76
2017-06-21T04:50:40.817Z,1002.83
2017-06-21T04:51:24.681Z,1002.86
2017-06-21T04:52:05.482Z,1002.83
2017-06-21T04:52:46.088Z,1002.85
2017-06-21T04:53:27.425Z,1002.8
2017-06-21T04:54:07.967Z,1002.88
2017-06-21T04:54:48.470Z,1002.89
2017-06-21T04:55:29.001Z,1002.9
2017-06-21T04:56:09.568Z,1002.89
2017-06-21T04:56:50.033Z,1002.89
2017-06-21T04:57:30.617Z,1002.88
2017-06-21T04:58:13.068Z,1002.92
2017-06-21T04:58:53.568Z,1002.88
2017-06-21T04:59:34.154Z,1002.89
2017-06-21T05:00:14.617Z,1002.9
2017-06-21T05:00:55.093Z,1002.89
2017-06-21T05:01:35.866Z,1002.92
2017-06-21T05:02:26.242Z,1002.91
2017-06-21T05:03:06.751Z,1002.86
2017-06-21T05:03:54.542Z,1002.9
2017-06-21T05:07:31.144Z,1002.88
2017-06-21T05:08:20.373Z,1002.9
2017-06-21T05:09:05.825Z,1002.84
2017-06-21T05:09:45.993Z,1002.89
2017-06-21T05:10:26.660Z,1002.88
2017-06-21T05:11:07.624Z,1002.86
2017-06-21T05:11:48.052Z,1002.85
2017-06-21T05:12:28.763Z,1002.84
2017-06-21T05:13:09.904Z,1002.8
2017-06-21T05:13:50.421Z,1002.87
2017-06-21T05:14:30.903Z,1002.84
2017-06-21T05:15:12.191Z,1002.89
2017-06-21T05:15:52.896Z,1002.87
2017-06-21T05:16:33.477Z,1002.87
2017-06-21T05:17:14.042Z,1002.91
2017-06-21T05:17:54.547Z,1002.97
2017-06-21T05:18:36.455Z,1002.95
2017-06-21T05:19:17.095Z,1002.94
2017-06-21T05:19:57.609Z,1002.89
2017-06-21T05:20:38.062Z,1002.88
2017-06-21T05:21:18.681Z,1002.94
2017-06-21T05:21:59.110Z,1002.91
2017-06-21T05:22:39.785Z,1002.89
2017-06-21T05:23:20.237Z,1002.88
2017-06-21T05:24:00.647Z,1002.91
2017-06-21T05:24:41.187Z,1002.91
2017-06-21T05:25:21.708Z,1002.99
2017-06-21T05:26:02.198Z,1002.96
2017-06-21T05:26:42.743Z,1002.94
2017-06-21T05:27:23.243Z,1003.06
2017-06-21T05:28:03.741Z,1003.09
2017-06-21T05:28:44.272Z,1003.05
2017-06-21T05:29:24.752Z,1002.98
2017-06-21T05:30:05.234Z,1002.92
2017-06-21T05:30:45.761Z,1002.92
2017-06-21T05:31:26.456Z,1002.94
2017-06-21T05:32:06.981Z,1002.93
2017-06-21T05:32:47.551Z,1002.93
2017-06-21T05:33:28.107Z,1002.95
2017-06-21T05:34:08.668Z,1002.94
2017-06-21T05:34:49.427Z,1002.98
2017-06-21T05:35:30.533Z,1002.98
2017-06-21T05:36:12.080Z,1002.97
2017-06-21T05:36:52.897Z,1003
2017-06-21T05:39:16.924Z,1003.03
2017-06-21T05:39:57.105Z,1003.02
2017-06-21T05:40:37.623Z,1003.03
2017-06-21T05:41:18.131Z,1003.03
2017-06-21T05:41:58.643Z,1003.03
2017-06-21T05:42:39.180Z,1003.07
2017-06-21T05:43:19.716Z,1003.04
2017-06-21T05:44:00.225Z,1003.04
2017-06-21T05:44:40.724Z,1003.06
2017-06-21T05:45:21.232Z,1003.04
2017-06-21T05:46:01.887Z,1003.06
2017-06-21T05:46:42.517Z,1003.11
2017-06-21T05:47:23.190Z,1003.1
2017-06-21T05:48:03.600Z,1003.04
2017-06-21T05:48:44.133Z,1003.09
2017-06-21T05:49:24.690Z,1003.02
2017-06-21T05:50:05.220Z,1003.13
2017-06-21T05:50:45.752Z,1003.05
2017-06-21T05:51:26.269Z,1002.97
2017-06-21T05:52:06.758Z,1003.1
2017-06-21T05:52:47.290Z,1003
2017-06-21T05:53:28.018Z,1003.03
2017-06-21T05:54:08.585Z,1003.08
2017-06-21T05:54:49.196Z,1003.18
2017-06-21T05:55:29.702Z,1003.01
2017-06-21T05:56:10.224Z,1003.03
2017-06-21T05:56:50.672Z,1003.11
2017-06-21T05:57:31.205Z,1003.1
2017-06-21T05:58:11.700Z,1003.1
2017-06-21T05:58:52.233Z,1003.11
2017-06-21T05:59:32.745Z,1003.11
2017-06-21T06:00:13.266Z,1003.11
2017-06-21T06:00:53.808Z,1003.09
2017-06-21T06:01:34.376Z,1003.1
2017-06-21T06:02:14.871Z,1003.22
2017-06-21T06:02:55.277Z,1003.16
2017-06-21T06:03:35.800Z,1003.11
2017-06-21T06:04:16.360Z,1003.24
2017-06-21T06:04:56.873Z,1003.15
2017-06-21T06:05:37.272Z,1003.14
2017-06-21T06:06:17.881Z,1003.11
2017-06-21T06:06:58.323Z,1003.12
2017-06-21T06:07:38.829Z,1003.07
2017-06-21T06:08:19.357Z,1003.12
2017-06-21T06:08:59.918Z,1003.1
2017-06-21T06:09:40.607Z,1003.1
2017-06-21T06:10:21.181Z,1003.09
2017-06-21T06:11:01.726Z,1003.1
2017-06-21T06:11:42.278Z,1003.12
2017-06-21T06:12:23.014Z,1003.15
2017-06-21T06:13:03.483Z,1003.15
2017-06-21T06:13:44.305Z,1003.21
2017-06-21T06:14:24.908Z,1003.19
2017-06-21T06:15:05.665Z,1003.18
2017-06-21T06:15:46.256Z,1003.25
2017-06-21T06:16:26.707Z,1003.21
2017-06-21T06:17:07.246Z,1003.23
2017-06-21T06:17:47.708Z,1003.32
2017-06-21T06:18:28.253Z,1003.23
2017-06-21T06:19:08.698Z,1003.18
2017-06-21T06:19:49.315Z,1003.23
2017-06-21T06:20:29.843Z,1003.17
2017-06-21T06:22:29.079Z,1003.24
2017-06-21T06:23:09.275Z,1003.19
2017-06-21T06:23:49.743Z,1003.21
2017-06-21T06:24:30.260Z,1003.24
2017-06-21T06:25:10.796Z,1003.27
2017-06-21T06:25:51.278Z,1003.26
2017-06-21T06:26:31.782Z,1003.25
2017-06-21T06:27:12.298Z,1003.2
2017-06-21T06:27:52.866Z,1003.28
2017-06-21T06:28:33.395Z,1003.29
2017-06-21T06:29:13.897Z,1003.25
2017-06-21T06:29:54.406Z,1003.29
2017-06-21T06:30:35.822Z,1003.26
2017-06-21T06:31:16.306Z,1003.2
2017-06-21T06:31:56.951Z,1003.24
2017-06-21T06:32:37.449Z,1003.24
2017-06-21T06:33:18.025Z,1003.24
2017-06-21T06:33:58.530Z,1003.31
2017-06-21T06:34:39.097Z,1003.31
2017-06-21T06:35:19.740Z,1003.28
2017-06-21T06:36:01.161Z,1003.34
2017-06-21T06:36:41.641Z,1003.34
2017-06-21T06:37:22.198Z,1003.27
2017-06-21T06:38:02.705Z,1003.29
2017-06-21T06:38:43.215Z,1003.34
2017-06-21T06:39:23.683Z,1003.3
2017-06-21T06:40:04.250Z,1003.31
2017-06-21T06:40:44.785Z,1003.32
2017-06-21T06:41:25.361Z,1003.3
2017-06-21T06:42:06.416Z,1003.28
2017-06-21T06:42:46.995Z,1003.31
2017-06-21T06:43:27.821Z,1003.27
2017-06-21T06:44:08.542Z,1003.28
2017-06-21T06:44:49.032Z,1003.3
2017-06-21T06:45:29.521Z,1003.35
2017-06-21T06:46:10.022Z,1003.35
2017-06-21T06:46:50.652Z,1003.27
2017-06-21T06:47:31.229Z,1003.27
2017-06-21T06:48:11.810Z,1003.28
2017-06-21T06:48:52.315Z,1003.25
2017-06-21T06:49:32.767Z,1003.26
2017-06-21T06:50:13.278Z,1003.24
2017-06-21T06:50:53.775Z,1003.23
2017-06-21T06:51:34.289Z,1003.26
2017-06-21T06:52:14.781Z,1003.29
2017-06-21T06:52:55.225Z,1003.3
2017-06-21T06:53:36.440Z,1003.3
2017-06-21T06:54:16.887Z,1003.28
2017-06-21T06:54:57.493Z,1003.33
2017-06-21T06:55:38.023Z,1003.32
2017-06-21T06:56:18.486Z,1003.31
2017-06-21T06:56:59.077Z,1003.34
2017-06-21T06:57:39.745Z,1003.29
2017-06-21T06:58:20.129Z,1003.29
2017-06-21T06:59:00.668Z,1003.32
2017-06-21T06:59:41.537Z,1003.27
2017-06-21T07:00:22.010Z,1003.27
2017-06-21T07:01:02.732Z,1003.26
2017-06-21T07:01:43.277Z,1003.32
2017-06-21T07:02:23.714Z,1003.27
2017-06-21T07:03:04.273Z,1003.25
2017-06-21T07:05:23.801Z,1003.31
2017-06-21T07:06:12.586Z,1003.27
2017-06-21T07:06:58.558Z,1003.36
2017-06-21T07:07:48.068Z,1003.37
2017-06-21T07:08:36.401Z,1003.31
2017-06-21T07:09:25.821Z,1003.31
2017-06-21T07:10:11.400Z,1003.31
2017-06-21T07:10:51.908Z,1003.34
2017-06-21T07:11:32.485Z,1003.36
2017-06-21T07:12:13.098Z,1003.32
2017-06-21T07:12:53.580Z,1003.4
2017-06-21T07:13:34.151Z,1003.38
2017-06-21T07:14:14.625Z,1003.31
2017-06-21T07:14:55.275Z,1003.36
2017-06-21T07:15:36.315Z,1003.34
2017-06-21T07:16:16.840Z,1003.34
2017-06-21T07:16:57.290Z,1003.34
2017-06-21T07:17:37.826Z,1003.34
2017-06-21T07:18:18.418Z,1003.36
2017-06-21T07:18:59.039Z,1003.29
2017-06-21T07:19:40.249Z,1003.32
2017-06-21T07:20:20.718Z,1003.35
2017-06-21T07:21:01.300Z,1003.29
2017-06-21T07:21:41.809Z,1003.28
2017-06-21T07:22:22.313Z,1003.31
2017-06-21T07:23:02.897Z,1003.32
2017-06-21T07:23:43.313Z,1003.33
2017-06-21T07:24:23.988Z,1003.3
2017-06-21T07:25:04.559Z,1003.29
2017-06-21T07:25:45.017Z,1003.29
2017-06-21T07:26:25.603Z,1003.31
2017-06-21T07:27:06.180Z,1003.3
2017-06-21T07:27:46.849Z,1003.27
2017-06-21T07:28:28.235Z,1003.29
2017-06-21T07:29:08.846Z,1003.24
2017-06-21T07:29:49.326Z,1003.27
2017-06-21T07:30:29.831Z,1003.24
2017-06-21T07:31:10.482Z,1003.27
2017-06-21T07:31:50.967Z,1003.27
2017-06-21T07:32:31.499Z,1003.26
2017-06-21T07:33:11.997Z,1003.24
2017-06-21T07:33:52.535Z,1003.21
2017-06-21T07:34:33.169Z,1003.21
2017-06-21T07:35:13.682Z,1003.19
2017-06-21T07:35:54.369Z,1003.24
2017-06-21T07:36:34.861Z,1003.21
2017-06-21T07:37:15.331Z,1003.23
2017-06-21T07:37:56.596Z,1003.22
2017-06-21T07:38:37.087Z,1003.23
2017-06-21T07:39:17.647Z,1003.24
2017-06-21T07:39:58.206Z,1003.27
2017-06-21T07:40:38.703Z,1003.23
2017-06-21T07:41:19.194Z,1003.19
2017-06-21T07:41:59.717Z,1003.19
2017-06-21T07:42:40.242Z,1003.23
2017-06-21T07:43:20.823Z,1003.22
2017-06-21T07:44:01.300Z,1003.2
2017-06-21T07:44:41.766Z,1003.21
2017-06-21T07:45:22.285Z,1003.21
2017-06-21T07:46:02.856Z,1003.21
2017-06-21T07:46:43.309Z,1003.21
2017-06-21T07:47:23.916Z,1003.22
2017-06-21T07:48:04.482Z,1003.18
2017-06-21T07:48:45.150Z,1003.17
2017-06-21T07:49:25.727Z,1003.18
2017-06-21T07:50:06.106Z,1003.21
2017-06-21T07:50:46.661Z,1003.22
2017-06-21T07:51:27.156Z,1003.21
2017-06-21T07:52:07.669Z,1003.13
2017-06-21T07:52:48.211Z,1003.18
2017-06-21T07:53:28.799Z,1003.16
2017-06-21T07:54:09.253Z,1003.12
2017-06-21T07:54:49.761Z,1003.26
2017-06-21T07:55:30.338Z,1003.22
2017-06-21T07:56:10.826Z,1003.21
2017-06-21T07:56:51.430Z,1003.16
2017-06-21T07:57:31.942Z,1003.15
2017-06-21T07:58:12.405Z,1003.13
2017-06-21T07:58:52.921Z,1003.1
2017-06-21T07:59:33.418Z,1003.11
2017-06-21T08:00:13.922Z,1003.1
2017-06-21T08:00:54.378Z,1003.11
2017-06-21T08:01:34.944Z,1003.17
2017-06-21T08:02:15.513Z,1003.1
2017-06-21T08:02:56.238Z,1003.16
2017-06-21T08:03:36.907Z,1003.1
2017-06-21T08:04:17.704Z,1003.13
2017-06-21T08:04:58.244Z,1003.11
2017-06-21T08:05:38.792Z,1003.12
2017-06-21T08:06:19.331Z,1003.14
2017-06-21T08:06:59.981Z,1003.11
2017-06-21T08:07:40.467Z,1003.1
2017-06-21T08:08:20.963Z,1003.15
2017-06-21T08:09:01.461Z,1003.13
2017-06-21T08:09:41.953Z,1003.1
2017-06-21T08:10:22.574Z,1003.1
2017-06-21T08:11:03.059Z,1003.11
2017-06-21T08:11:43.568Z,1003.11
2017-06-21T08:12:24.184Z,1003.15
2017-06-21T08:13:04.998Z,1003.17
2017-06-21T08:13:45.508Z,1003.15
2017-06-21T08:14:26.011Z,1003.14
2017-06-21T08:15:09.293Z,1003.16
2017-06-21T08:17:28.857Z,1003.13
2017-06-21T08:18:09.031Z,1003.14
2017-06-21T08:18:49.566Z,1003.14
2017-06-21T08:19:30.195Z,1003.14
2017-06-21T08:20:10.627Z,1003.22
2017-06-21T08:20:51.220Z,1003.19
2017-06-21T08:21:31.768Z,1003.24
2017-06-21T08:22:13.249Z,1003.14
2017-06-21T08:22:53.812Z,1003.13
2017-06-21T08:23:34.442Z,1003.12
2017-06-21T08:24:15.077Z,1003.14
2017-06-21T08:24:55.667Z,1003.15
2017-06-21T08:25:36.257Z,1003.16
2017-06-21T08:26:16.800Z,1003.13
2017-06-21T08:26:57.366Z,1003.19
2017-06-21T08:27:38.655Z,1003.19
2017-06-21T08:28:18.376Z,1003.17
2017-06-21T08:28:58.959Z,1003.17
2017-06-21T08:29:39.379Z,1003.18
2017-06-21T08:30:20.774Z,1003.18
2017-06-21T08:31:01.292Z,1003.2
2017-06-21T08:31:41.847Z,1003.17
2017-06-21T08:32:22.502Z,1003.18
2017-06-21T08:33:02.975Z,1003.18
2017-06-21T08:33:43.532Z,1003.14
2017-06-21T08:34:24.193Z,1003.15
2017-06-21T08:35:04.732Z,1003.12
2017-06-21T08:35:45.196Z,1003.12
2017-06-21T08:36:25.974Z,1003.15
2017-06-21T08:37:06.479Z,1003.13
2017-06-21T08:37:46.972Z,1003.13
2017-06-21T08:38:27.476Z,1003.11
2017-06-21T08:39:08.160Z,1003.13
2017-06-21T08:39:48.709Z,1003.09
2017-06-21T08:40:29.241Z,1003.11
2017-06-21T08:41:09.907Z,1003.12
2017-06-21T08:41:50.491Z,1003.12
2017-06-21T08:42:31.193Z,1003.1
2017-06-21T08:43:11.802Z,1003.1
2017-06-21T08:43:52.324Z,1003.1
2017-06-21T08:44:33.030Z,1003.12
2017-06-21T08:45:13.891Z,1003.09